createdAt,value
2018-05-31T00:00:36.752Z,101321.12
2018-05-31T00:03:02.494Z,101318.23
2018-05-31T00:05:28.241Z,101324.83
2018-05-31T00:07:53.993Z,101322.58
2018-05-31T00:10:19.752Z,101319.86
2018-05-31T00:12:45.485Z,101316.83
2018-05-31T00:15:11.224Z,101315.11
2018-05-31T00:17:36.977Z,101314.84
2018-05-31T00:20:02.741Z,101316.48
2018-05-31T00:22:28.468Z,101310.91
2018-05-31T00:24:54.226Z,101308.03
2018-05-31T00:27:19.948Z,101313.72
2018-05-31T00:29:45.716Z,101307.89
2018-05-31T00:32:11.456Z,101304.52
2018-05-31T00:34:37.204Z,101304.64
2018-05-31T00:37:02.948Z,101303.85
2018-05-31T00:39:28.680Z,101301.11
2018-05-31T00:41:54.422Z,101295.38
2018-05-31T00:44:20.156Z,101301.80
2018-05-31T00:46:45.895Z,101308.23
2018-05-31T00:49:11.639Z,101308.67
2018-05-31T00:51:37.381Z,101306.70
2018-05-31T00:54:03.123Z,101308.55
2018-05-31T00:56:28.860Z,101310.60
2018-05-31T00:58:54.588Z,101308.54
2018-05-31T01:01:20.332Z,101301.78
2018-05-31T01:03:46.073Z,101304.03
2018-05-31T01:06:11.820Z,101301.86
2018-05-31T01:08:37.558Z,101300.38
2018-05-31T01:11:04.104Z,101304.91
2018-05-31T01:13:29.847Z,101297.87
2018-05-31T01:15:55.594Z,101301.27
2018-05-31T01:18:21.327Z,101300.34
2018-05-31T01:20:47.084Z,101296.11
2018-05-31T01:23:12.825Z,101300.27
2018-05-31T01:25:38.575Z,101304.99
2018-05-31T01:28:04.309Z,101313.43
2018-05-31T01:30:30.048Z,101304.61
2018-05-31T01:32:55.773Z,101296.44
2018-05-31T01:35:21.530Z,101305.55
2018-05-31T01:37:47.269Z,101300.81
2018-05-31T01:40:13.012Z,101297.98
2018-05-31T01:42:38.735Z,101293.53
2018-05-31T01:45:04.484Z,101296.94
2018-05-31T01:47:30.224Z,101298.89
2018-05-31T01:49:55.961Z,101297.39
2018-05-31T01:52:21.708Z,101295.63
2018-05-31T01:54:47.450Z,101294.72
2018-05-31T01:57:13.200Z,101288.89
2018-05-31T01:59:38.939Z,101291.19
2018-05-31T02:02:04.705Z,101289.12
2018-05-31T02:04:30.448Z,101284.42
2018-05-31T02:06:56.190Z,101285.47
2018-05-31T02:09:21.931Z,101283.76
2018-05-31T02:11:47.717Z,101285.80
2018-05-31T02:14:13.457Z,101283.19
2018-05-31T02:16:39.216Z,101284.73
2018-05-31T02:19:04.981Z,101286.94
2018-05-31T02:21:30.716Z,101288.55
2018-05-31T02:23:56.456Z,101293.33
2018-05-31T02:26:22.208Z,101302.52
2018-05-31T02:28:47.948Z,101302.45
2018-05-31T02:31:13.692Z,101310.11
2018-05-31T02:33:39.425Z,101311.80
2018-05-31T02:36:05.180Z,101310.84
2018-05-31T02:38:30.920Z,101311.30
2018-05-31T02:40:56.656Z,101311.66
2018-05-31T02:43:22.401Z,101313.36
2018-05-31T02:45:48.295Z,101308.20
2018-05-31T02:48:14.021Z,101311.31
2018-05-31T02:50:39.772Z,101316.01
2018-05-31T02:53:06.002Z,101309.10
2018-05-31T02:55:33.128Z,101309.86
2018-05-31T02:57:58.913Z,101304.58
2018-05-31T03:00:24.640Z,101303.56
2018-05-31T03:02:50.385Z,101302.12
2018-05-31T03:05:16.120Z,101295.05
2018-05-31T03:07:41.910Z,101301.16
2018-05-31T03:10:07.627Z,101305.87
2018-05-31T03:12:33.377Z,101304.20
2018-05-31T03:14:59.106Z,101304.06
2018-05-31T03:17:24.860Z,101309.33
2018-05-31T03:19:50.600Z,101310.48
2018-05-31T03:22:16.333Z,101317.65
2018-05-31T03:24:42.072Z,101314.06
2018-05-31T03:27:07.807Z,101309.41
2018-05-31T03:29:33.524Z,101312.73
2018-05-31T03:31:59.287Z,101309.98
2018-05-31T03:34:25.018Z,101312.22
2018-05-31T03:36:50.762Z,101313.28
2018-05-31T03:39:16.482Z,101314.38
2018-05-31T03:41:42.237Z,101316.13
2018-05-31T03:44:07.969Z,101318.51
2018-05-31T03:46:33.704Z,101316.51
2018-05-31T03:48:59.435Z,101297.20
2018-05-31T03:51:25.184Z,101303.11
2018-05-31T03:53:50.904Z,101310.11
2018-05-31T03:56:16.656Z,101317.86
2018-05-31T03:58:42.390Z,101307.64
2018-05-31T04:01:08.132Z,101306.48
2018-05-31T04:03:33.856Z,101312.83
2018-05-31T04:05:59.603Z,101320.19
2018-05-31T04:08:25.328Z,101329.68
2018-05-31T04:10:51.549Z,101333.03
2018-05-31T04:13:17.311Z,101318.47
2018-05-31T04:15:43.045Z,101319.54
2018-05-31T04:18:08.787Z,101318.20
2018-05-31T04:20:34.515Z,101308.59
2018-05-31T04:23:00.261Z,101309.78
2018-05-31T04:25:25.996Z,101311.66
2018-05-31T04:27:51.743Z,101309.86
2018-05-31T04:30:17.464Z,101304.55
2018-05-31T04:32:43.203Z,101302.40
2018-05-31T04:35:08.932Z,101308.25
2018-05-31T04:37:34.663Z,101301.52
2018-05-31T04:40:00.388Z,101299.71
2018-05-31T04:42:26.170Z,101301.75
2018-05-31T04:44:51.863Z,101295.34
2018-05-31T04:47:17.617Z,101301.30
2018-05-31T04:49:43.336Z,101305.15
2018-05-31T04:52:09.075Z,101308.55
2018-05-31T04:54:34.799Z,101302.18
2018-05-31T04:57:01.564Z,101308.13
2018-05-31T04:59:27.298Z,101304.86
2018-05-31T05:01:53.034Z,101315.45
2018-05-31T05:04:18.765Z,101309.45
2018-05-31T05:06:44.525Z,101303.06
2018-05-31T05:09:10.269Z,101316.53
2018-05-31T05:11:35.997Z,101309.16
2018-05-31T05:14:01.735Z,101314.55
2018-05-31T05:16:27.456Z,101318.36
2018-05-31T05:18:53.211Z,101313.93
2018-05-31T05:21:18.933Z,101320.83
2018-05-31T05:23:44.680Z,101312.91
2018-05-31T05:26:10.428Z,101328.23
2018-05-31T05:28:36.171Z,101330.75
2018-05-31T05:31:01.922Z,101329.41
2018-05-31T05:33:27.659Z,101343.56
2018-05-31T05:35:53.397Z,101347.59
2018-05-31T05:38:19.143Z,101348.36
2018-05-31T05:40:44.885Z,101358.30
2018-05-31T05:43:10.633Z,101364.02
2018-05-31T05:45:36.376Z,101340.61
2018-05-31T05:48:02.130Z,101334.05
2018-05-31T05:50:27.851Z,101341.56
2018-05-31T05:52:53.611Z,101358.77
2018-05-31T05:55:19.361Z,101345.12
2018-05-31T05:57:45.104Z,101342.92
2018-05-31T06:00:10.844Z,101336.78
2018-05-31T06:02:36.601Z,101338.16
2018-05-31T06:05:02.340Z,101341.63
2018-05-31T06:07:28.075Z,101340.22
2018-05-31T06:09:53.878Z,101345.44
2018-05-31T06:12:19.561Z,101344.63
2018-05-31T06:14:45.308Z,101350.23
2018-05-31T06:17:11.053Z,101348.96
2018-05-31T06:19:36.813Z,101348.02
2018-05-31T06:22:02.560Z,101347.80
2018-05-31T06:24:28.295Z,101351.83
2018-05-31T06:26:54.022Z,101359.25
2018-05-31T06:29:19.776Z,101356.56
2018-05-31T06:31:45.521Z,101357.12
2018-05-31T06:34:11.263Z,101361.42
2018-05-31T06:36:37.004Z,101366.97
2018-05-31T06:39:02.760Z,101357.12
2018-05-31T06:41:28.488Z,101364.32
2018-05-31T06:43:54.225Z,101359.97
2018-05-31T06:46:19.964Z,101368.60
2018-05-31T06:48:45.706Z,101367.27
2018-05-31T06:51:11.431Z,101366.82
2018-05-31T06:53:37.184Z,101372.84
2018-05-31T06:56:02.916Z,101375.48
2018-05-31T06:58:28.699Z,101368.95
2018-05-31T07:00:54.467Z,101367.63
2018-05-31T07:03:20.198Z,101365.92
2018-05-31T07:05:45.925Z,101381.77
2018-05-31T07:08:11.670Z,101378.55
2018-05-31T07:10:37.418Z,101382.80
2018-05-31T07:13:03.149Z,101384.96
2018-05-31T07:15:28.888Z,101390.74
2018-05-31T07:17:54.604Z,101392.39
2018-05-31T07:20:20.362Z,101396.47
2018-05-31T07:22:46.091Z,101394.46
2018-05-31T07:25:11.842Z,101394.10
2018-05-31T07:27:37.597Z,101390.66
2018-05-31T07:30:03.341Z,101390.08
2018-05-31T07:32:29.080Z,101399.93
2018-05-31T07:34:54.824Z,101398.60
2018-05-31T07:37:20.587Z,101406.27
2018-05-31T07:39:46.336Z,101402.50
2018-05-31T07:42:12.077Z,101405.94
2018-05-31T07:44:37.821Z,101397.55
2018-05-31T07:47:03.560Z,101400.45
2018-05-31T07:49:29.298Z,101403.61
2018-05-31T07:51:55.037Z,101402.48
2018-05-31T07:54:20.789Z,101401.84
2018-05-31T07:56:46.529Z,101401.86
2018-05-31T07:59:12.284Z,101395.49
2018-05-31T08:01:38.016Z,101398.05
2018-05-31T08:04:03.764Z,101403.76
2018-05-31T08:06:29.513Z,101405.68
2018-05-31T08:08:55.276Z,101400.23
2018-05-31T08:11:21.072Z,101402.72
2018-05-31T08:13:46.826Z,101403.47
2018-05-31T08:16:12.548Z,101402.61
2018-05-31T08:18:38.290Z,101398.27
2018-05-31T08:21:04.045Z,101402.38
2018-05-31T08:23:29.780Z,101410.91
2018-05-31T08:25:55.515Z,101407.02
2018-05-31T08:28:21.239Z,101398.12
2018-05-31T08:30:46.972Z,101395.85
2018-05-31T08:33:12.700Z,101404.64
2018-05-31T08:35:38.432Z,101403.08
2018-05-31T08:38:10.306Z,101409.47
2018-05-31T08:40:36.354Z,101406.81
2018-05-31T08:43:02.068Z,101402.80
2018-05-31T08:45:27.809Z,101398.74
2018-05-31T08:47:53.547Z,101409.17
2018-05-31T08:50:19.294Z,101400.44
2018-05-31T08:52:45.030Z,101399.78
2018-05-31T08:55:10.767Z,101405.36
2018-05-31T08:57:36.508Z,101396.38
2018-05-31T09:00:02.256Z,101398.31
2018-05-31T09:02:27.985Z,101398.95
2018-05-31T09:04:53.728Z,101408.53
2018-05-31T09:07:19.451Z,101403.63
2018-05-31T09:09:45.209Z,101403.24
2018-05-31T09:12:10.958Z,101408.14
2018-05-31T09:14:36.701Z,101398.73
2018-05-31T09:17:02.420Z,101410.11
2018-05-31T09:19:28.156Z,101407.78
2018-05-31T09:21:53.883Z,101397.47
2018-05-31T09:24:19.651Z,101397.95
2018-05-31T09:26:45.391Z,101402.50
2018-05-31T09:29:11.127Z,101400.33
2018-05-31T09:31:36.865Z,101405.70
2018-05-31T09:34:02.604Z,101395.45
2018-05-31T09:36:28.348Z,101402.35
2018-05-31T09:38:54.064Z,101399.00
2018-05-31T09:41:19.815Z,101403.20
2018-05-31T09:43:45.541Z,101399.75
2018-05-31T09:46:11.276Z,101388.53
2018-05-31T09:48:37.020Z,101395.77
2018-05-31T09:51:02.771Z,101402.63
2018-05-31T09:53:28.521Z,101399.74
2018-05-31T09:55:54.261Z,101401.42
2018-05-31T09:58:19.999Z,101396.43
2018-05-31T10:00:45.741Z,101400.89
2018-05-31T10:03:11.483Z,101392.55
2018-05-31T10:05:37.222Z,101385.28
2018-05-31T10:08:02.968Z,101384.44
2018-05-31T10:10:28.709Z,101393.30
2018-05-31T10:12:54.444Z,101392.08
2018-05-31T10:15:20.227Z,101390.50
2018-05-31T10:17:45.964Z,101395.12
2018-05-31T10:20:11.721Z,101393.28
2018-05-31T10:22:37.453Z,101388.08
2018-05-31T10:25:03.216Z,101390.99
2018-05-31T10:27:28.959Z,101391.38
2018-05-31T10:29:54.707Z,101380.61
2018-05-31T10:32:20.435Z,101379.62
2018-05-31T10:34:46.149Z,101383.16
2018-05-31T10:37:11.893Z,101385.64
2018-05-31T10:39:37.620Z,101384.49
2018-05-31T10:42:03.384Z,101381.83
2018-05-31T10:44:29.126Z,101367.19
2018-05-31T10:46:54.919Z,101377.68
2018-05-31T10:49:20.591Z,101371.98
2018-05-31T10:51:46.345Z,101374.70
2018-05-31T10:54:12.096Z,101368.92
2018-05-31T10:56:37.841Z,101365.77
2018-05-31T10:59:03.591Z,101360.11
2018-05-31T11:01:29.342Z,101369.17
2018-05-31T11:03:55.069Z,101368.14
2018-05-31T11:06:20.819Z,101367.86
2018-05-31T11:08:46.557Z,101365.55
2018-05-31T11:11:12.289Z,101370.85
2018-05-31T11:13:38.008Z,101373.71
2018-05-31T11:16:03.740Z,101362.34
2018-05-31T11:18:29.458Z,101364.33
2018-05-31T11:20:55.192Z,101361.06
2018-05-31T11:23:20.909Z,101356.66
2018-05-31T11:25:46.637Z,101356.48
2018-05-31T11:28:12.351Z,101353.42
2018-05-31T11:30:38.072Z,101361.05
2018-05-31T11:33:03.805Z,101357.28
2018-05-31T11:35:29.543Z,101354.83
2018-05-31T11:37:55.277Z,101347.44
2018-05-31T11:40:21.003Z,101352.28
2018-05-31T11:42:46.729Z,101347.23
2018-05-31T11:45:12.456Z,101352.33
2018-05-31T11:47:38.184Z,101358.38
2018-05-31T11:50:03.903Z,101339.91
2018-05-31T11:52:29.624Z,101335.74
2018-05-31T11:54:55.758Z,101342.70
2018-05-31T11:57:21.496Z,101342.50
2018-05-31T11:59:47.220Z,101336.62
2018-05-31T12:02:12.945Z,101334.14
2018-05-31T12:04:45.765Z,101331.50
2018-05-31T12:07:11.491Z,101323.87
2018-05-31T12:09:37.203Z,101318.20
2018-05-31T12:12:02.939Z,101320.91
2018-05-31T12:14:28.660Z,101326.46
2018-05-31T12:16:54.380Z,101320.55
2018-05-31T12:19:20.109Z,101315.01
2018-05-31T12:21:45.854Z,101322.91
2018-05-31T12:24:11.607Z,101321.14
2018-05-31T12:26:37.342Z,101312.89
2018-05-31T12:29:03.060Z,101307.73
2018-05-31T12:31:28.779Z,101303.14
2018-05-31T12:33:54.513Z,101311.41
2018-05-31T12:36:20.237Z,101303.70
2018-05-31T12:38:45.959Z,101308.92
2018-05-31T12:41:11.700Z,101313.41
2018-05-31T12:43:37.433Z,101311.23
2018-05-31T12:46:03.160Z,101314.96
2018-05-31T12:48:28.900Z,101319.81
2018-05-31T12:50:54.645Z,101317.61
2018-05-31T12:53:20.389Z,101308.05
2018-05-31T12:55:46.104Z,101313.03
2018-05-31T12:58:11.857Z,101320.06
2018-05-31T13:00:37.571Z,101312.87
2018-05-31T13:03:03.306Z,101320.27
2018-05-31T13:05:29.033Z,101315.70
2018-05-31T13:07:54.767Z,101310.88
2018-05-31T13:10:20.493Z,101310.74
2018-05-31T13:12:46.224Z,101318.44
2018-05-31T13:15:11.959Z,101319.53
2018-05-31T13:17:37.705Z,101313.50
2018-05-31T13:20:03.451Z,101316.17
2018-05-31T13:22:29.183Z,101311.19
2018-05-31T13:24:54.900Z,101314.06
2018-05-31T13:27:20.633Z,101314.06
2018-05-31T13:29:46.360Z,101319.17
2018-05-31T13:32:12.109Z,101313.52
2018-05-31T13:34:37.841Z,101297.27
2018-05-31T13:37:03.591Z,101304.63
2018-05-31T13:39:29.327Z,101306.38
2018-05-31T13:41:55.068Z,101309.99
2018-05-31T13:44:20.809Z,101304.15
2018-05-31T13:46:46.574Z,101306.44
2018-05-31T13:49:12.296Z,101307.72
2018-05-31T13:51:38.048Z,101306.96
2018-05-31T13:54:03.802Z,101314.52
2018-05-31T13:56:29.549Z,101307.09
2018-05-31T13:58:55.297Z,101301.87
2018-05-31T14:01:21.032Z,101301.87
2018-05-31T14:03:46.798Z,101303.64
2018-05-31T14:06:12.531Z,101304.30
2018-05-31T14:08:38.268Z,101298.25
2018-05-31T14:11:04.012Z,101296.66
2018-05-31T14:13:29.757Z,101293.70
2018-05-31T14:15:55.501Z,101291.02
2018-05-31T14:18:21.248Z,101293.83
2018-05-31T14:20:46.998Z,101293.37
2018-05-31T14:23:12.752Z,101292.67
2018-05-31T14:25:38.500Z,101287.92
2018-05-31T14:28:04.261Z,101289.08
2018-05-31T14:30:29.992Z,101287.41
2018-05-31T14:32:55.734Z,101277.56
2018-05-31T14:35:21.473Z,101284.95
2018-05-31T14:37:47.228Z,101281.30
2018-05-31T14:40:12.960Z,101278.44
2018-05-31T14:42:38.695Z,101277.80
2018-05-31T14:45:04.436Z,101274.12
2018-05-31T14:47:30.184Z,101287.61
2018-05-31T14:49:55.920Z,101287.09
2018-05-31T14:52:21.661Z,101271.05
2018-05-31T14:54:47.413Z,101274.86
2018-05-31T14:57:13.139Z,101280.38
2018-05-31T14:59:38.869Z,101283.23
2018-05-31T15:02:04.621Z,101281.62
2018-05-31T15:04:30.360Z,101272.91
2018-05-31T15:06:56.088Z,101274.45
2018-05-31T15:09:21.845Z,101282.09
2018-05-31T15:11:47.582Z,101284.75
2018-05-31T15:14:13.336Z,101292.22
2018-05-31T15:16:39.060Z,101286.72
2018-05-31T15:19:04.835Z,101294.22
2018-05-31T15:21:30.580Z,101298.78
2018-05-31T15:23:56.325Z,101300.23
2018-05-31T15:26:22.060Z,101293.06
2018-05-31T15:28:47.824Z,101294.91
2018-05-31T15:31:13.560Z,101290.51
2018-05-31T15:33:39.304Z,101291.31
2018-05-31T15:36:05.090Z,101285.13
2018-05-31T15:38:30.792Z,101284.79
2018-05-31T15:40:56.524Z,101285.09
2018-05-31T15:43:22.247Z,101275.34
2018-05-31T15:45:47.988Z,101283.36
2018-05-31T15:48:13.749Z,101281.72
2018-05-31T15:50:39.488Z,101283.66
2018-05-31T15:53:05.232Z,101285.69
2018-05-31T15:55:30.989Z,101277.43
2018-05-31T15:57:56.731Z,101279.92
2018-05-31T16:00:22.471Z,101277.97
2018-05-31T16:02:48.232Z,101284.05
2018-05-31T16:05:13.959Z,101288.20
2018-05-31T16:07:39.688Z,101287.64
2018-05-31T16:10:05.429Z,101285.13
2018-05-31T16:12:31.155Z,101286.52
2018-05-31T16:14:56.884Z,101282.92
2018-05-31T16:17:22.633Z,101283.03
2018-05-31T16:19:48.389Z,101279.59
2018-05-31T16:22:14.116Z,101296.16
2018-05-31T16:24:39.849Z,101288.48
2018-05-31T16:27:05.597Z,101291.70
2018-05-31T16:29:31.353Z,101294.27
2018-05-31T16:31:57.084Z,101289.77
2018-05-31T16:34:22.832Z,101288.14
2018-05-31T16:36:48.557Z,101287.77
2018-05-31T16:39:14.302Z,101285.06
2018-05-31T16:41:40.032Z,101291.20
2018-05-31T16:44:05.791Z,101290.93
2018-05-31T16:46:31.528Z,101287.29
2018-05-31T16:48:57.284Z,101288.59
2018-05-31T16:51:23.022Z,101286.62
2018-05-31T16:53:48.768Z,101288.88
2018-05-31T16:56:14.507Z,101287.58
2018-05-31T16:58:40.257Z,101285.16
2018-05-31T17:01:06.000Z,101291.76
2018-05-31T17:03:31.742Z,101282.87
2018-05-31T17:05:57.473Z,101290.37
2018-05-31T17:08:23.224Z,101289.98
2018-05-31T17:10:48.958Z,101286.17
2018-05-31T17:13:14.693Z,101295.44
2018-05-31T17:15:40.449Z,101285.86
2018-05-31T17:18:06.193Z,101290.30
2018-05-31T17:20:31.951Z,101293.45
2018-05-31T17:22:57.685Z,101289.80
2018-05-31T17:25:23.436Z,101294.55
2018-05-31T17:27:49.178Z,101297.66
2018-05-31T17:30:14.920Z,101297.52
2018-05-31T17:32:40.648Z,101301.02
2018-05-31T17:35:06.384Z,101298.39
2018-05-31T17:37:32.124Z,101304.92
2018-05-31T17:39:57.864Z,101305.82
2018-05-31T17:42:23.646Z,101300.48
2018-05-31T17:44:49.383Z,101293.45
2018-05-31T17:47:15.131Z,101301.80
2018-05-31T17:49:40.877Z,101295.33
2018-05-31T17:52:06.611Z,101297.37
2018-05-31T17:54:32.722Z,101296.51
2018-05-31T17:56:58.473Z,101305.94
2018-05-31T17:59:24.207Z,101303.70
2018-05-31T18:01:49.969Z,101305.25
2018-05-31T18:04:15.700Z,101304.66
2018-05-31T18:06:41.505Z,101298.68
2018-05-31T18:09:07.262Z,101298.86
2018-05-31T18:11:33.014Z,101301.78
2018-05-31T18:13:58.770Z,101299.54
2018-05-31T18:16:24.505Z,101298.63
2018-05-31T18:18:50.241Z,101303.61
2018-05-31T18:21:15.995Z,101295.18
2018-05-31T18:23:41.736Z,101298.50
2018-05-31T18:26:07.484Z,101308.55
2018-05-31T18:28:33.243Z,101308.83
2018-05-31T18:30:58.989Z,101319.06
2018-05-31T18:33:24.720Z,101323.04
2018-05-31T18:35:50.476Z,101328.98
2018-05-31T18:38:16.199Z,101325.72
2018-05-31T18:40:41.942Z,101334.61
2018-05-31T18:43:07.682Z,101325.66
2018-05-31T18:45:33.432Z,101326.73
2018-05-31T18:47:59.166Z,101331.41
2018-05-31T18:50:24.919Z,101329.13
2018-05-31T18:52:50.654Z,101341.94
2018-05-31T18:55:16.396Z,101330.95
2018-05-31T18:57:42.141Z,101329.63
2018-05-31T19:00:07.896Z,101327.64
2018-05-31T19:02:33.632Z,101334.09
2018-05-31T19:04:59.414Z,101331.98
2018-05-31T19:07:25.160Z,101328.33
2018-05-31T19:09:50.891Z,101333.95
2018-05-31T19:12:16.641Z,101331.98
2018-05-31T19:14:42.380Z,101339.92
2018-05-31T19:17:08.108Z,101340.11
2018-05-31T19:19:39.891Z,101343.20
2018-05-31T19:22:05.618Z,101338.61
2018-05-31T19:24:37.495Z,101340.75
2018-05-31T19:27:03.215Z,101347.28
2018-05-31T19:29:28.950Z,101356.00
2018-05-31T19:31:54.696Z,101360.59
2018-05-31T19:34:20.435Z,101371.96
2018-05-31T19:36:52.268Z,101367.91
2018-05-31T19:39:17.995Z,101370.64
2018-05-31T19:41:43.732Z,101376.53
2018-05-31T19:44:15.488Z,101379.13
2018-05-31T19:46:41.225Z,101374.05
2018-05-31T19:49:06.956Z,101373.78
2018-05-31T19:51:38.956Z,101374.25
2018-05-31T19:54:04.722Z,101378.28
2018-05-31T19:56:30.449Z,101380.66
2018-05-31T20:12:21.258Z,101369.16
2018-05-31T20:14:46.029Z,101366.39
2018-05-31T20:17:11.768Z,101374.77
2018-05-31T20:19:37.509Z,101379.13
2018-05-31T20:22:03.249Z,101375.98
2018-05-31T20:24:28.981Z,101378.43
2018-05-31T20:26:54.719Z,101379.70
2018-05-31T20:29:20.583Z,101372.63
2018-05-31T20:31:46.575Z,101376.97
2018-05-31T20:34:12.331Z,101372.23
2018-05-31T20:36:38.117Z,101371.27
2018-05-31T20:39:04.642Z,101367.41
2018-05-31T20:41:30.399Z,101367.42
2018-05-31T20:43:56.120Z,101371.77
2018-05-31T20:46:21.865Z,101365.06
2018-05-31T20:48:47.597Z,101362.65
2018-05-31T20:51:13.396Z,101363.20
2018-05-31T20:53:39.213Z,101364.63
2018-05-31T20:56:04.948Z,101363.20
2018-05-31T20:58:30.683Z,101368.17
2018-05-31T21:00:56.433Z,101356.84
2018-05-31T21:03:22.165Z,101359.09
2018-05-31T21:05:47.916Z,101354.02
2018-05-31T21:08:13.633Z,101354.91
2018-05-31T21:10:39.380Z,101364.86
2018-05-31T21:13:05.111Z,101357.59
2018-05-31T21:15:30.865Z,101355.73
2018-05-31T21:17:56.609Z,101361.81
2018-05-31T21:20:22.349Z,101362.52
2018-05-31T21:22:48.363Z,101365.47
2018-05-31T21:25:14.065Z,101361.66
2018-05-31T21:27:39.811Z,101363.02
2018-05-31T21:30:05.555Z,101360.52
2018-05-31T21:32:31.309Z,101368.93
2018-05-31T21:34:57.046Z,101364.20
2018-05-31T21:37:22.786Z,101358.50
2018-05-31T21:39:48.515Z,101366.16
2018-05-31T21:42:14.254Z,101370.10
2018-05-31T21:44:39.981Z,101367.30
2018-05-31T21:47:05.725Z,101364.38
2018-05-31T21:49:31.453Z,101362.22
2018-05-31T21:51:57.193Z,101362.47
2018-05-31T21:54:23.009Z,101359.63
2018-05-31T21:56:48.764Z,101364.30
2018-05-31T21:59:14.496Z,101365.28
2018-05-31T22:01:40.244Z,101365.27
2018-05-31T22:04:05.976Z,101364.60
2018-05-31T22:06:31.721Z,101357.47
2018-05-31T22:08:57.463Z,101363.34
2018-05-31T22:11:23.211Z,101368.39
2018-05-31T22:13:49.071Z,101363.58
2018-05-31T22:16:14.804Z,101363.48
2018-05-31T22:18:40.555Z,101366.75
2018-05-31T22:21:06.293Z,101366.45
2018-05-31T22:23:32.037Z,101367.23
2018-05-31T22:25:57.769Z,101368.25
2018-05-31T22:28:23.503Z,101368.50
2018-05-31T22:30:49.231Z,101362.47
2018-05-31T22:33:14.977Z,101371.83
2018-05-31T22:35:40.701Z,101367.31
2018-05-31T22:38:06.441Z,101373.09
2018-05-31T22:40:32.176Z,101374.86
2018-05-31T22:42:57.923Z,101376.74
2018-05-31T22:45:23.655Z,101373.45
2018-05-31T22:47:49.400Z,101366.55
2018-05-31T22:50:15.133Z,101360.69
2018-05-31T22:52:40.877Z,101354.95
2018-05-31T22:55:06.785Z,101357.42
2018-05-31T22:57:32.521Z,101354.06
2018-05-31T22:59:58.248Z,101353.92
2018-05-31T23:02:23.992Z,101353.62
2018-05-31T23:04:49.726Z,101355.84
2018-05-31T23:07:15.460Z,101353.39
2018-05-31T23:09:41.188Z,101353.48
2018-05-31T23:12:06.924Z,101357.09
2018-05-31T23:14:32.640Z,101356.20
2018-05-31T23:16:59.027Z,101353.44
2018-05-31T23:19:24.868Z,101356.88
2018-05-31T23:21:50.633Z,101355.62
2018-05-31T23:24:16.906Z,101363.70
2018-05-31T23:26:42.632Z,101363.94
2018-05-31T23:29:08.381Z,101367.44
2018-05-31T23:31:34.271Z,101372.16
2018-05-31T23:34:00.039Z,101373.42
2018-05-31T23:36:25.861Z,101376.33
2018-05-31T23:38:52.091Z,101377.44
2018-05-31T23:41:18.163Z,101371.33
2018-05-31T23:43:44.450Z,101373.73
2018-05-31T23:46:10.528Z,101377.14
2018-05-31T23:48:36.289Z,101373.97
2018-05-31T23:51:02.243Z,101376.11
2018-05-31T23:53:28.112Z,101365.49
2018-05-31T23:55:53.862Z,101369.53
2018-05-31T23:58:19.600Z,101365.94
